createdAt,value
2022-11-21T00:02:26.493Z,38.80
2022-11-21T00:04:54.828Z,40.67
2022-11-21T00:07:23.247Z,38.92
2022-11-21T00:09:51.573Z,37.22
2022-11-21T00:12:19.893Z,40.63
2022-11-21T00:14:48.225Z,41.60
2022-11-21T00:17:17.903Z,39.17
2022-11-21T00:19:46.291Z,38.45
2022-11-21T00:22:14.653Z,41.40
2022-11-21T00:24:43.080Z,37.35
2022-11-21T00:27:11.417Z,37.45
2022-11-21T00:29:39.745Z,43.38
2022-11-21T00:32:08.099Z,39.80
2022-11-21T00:34:37.774Z,39.80
2022-11-21T00:37:06.194Z,37.17
2022-11-21T00:39:34.489Z,37.30
2022-11-21T00:42:02.818Z,40.80
2022-11-21T00:44:31.135Z,34.50
2022-11-21T00:46:59.452Z,42.83
2022-11-21T00:49:28.317Z,34.78
2022-11-21T00:51:58.054Z,34.63
2022-11-21T00:54:26.805Z,37.88
2022-11-21T00:56:55.377Z,36.45
2022-11-21T00:59:23.730Z,33.28
2022-11-21T01:01:52.226Z,35.70
2022-11-21T01:04:20.937Z,39.03
2022-11-21T01:06:49.278Z,34.72
2022-11-21T01:09:18.981Z,41.00
2022-11-21T01:11:47.303Z,35.35
2022-11-21T01:14:15.664Z,35.50
2022-11-21T01:16:43.978Z,36.20
2022-11-21T01:19:12.360Z,36.88
2022-11-21T01:21:40.661Z,34.10
2022-11-21T01:24:11.871Z,37.35
2022-11-21T01:26:41.600Z,35.33
2022-11-21T01:29:10.196Z,34.30
2022-11-21T01:31:38.501Z,33.97
2022-11-21T01:34:06.891Z,36.05
2022-11-21T01:36:35.777Z,38.47
2022-11-21T01:39:07.413Z,41.20
2022-11-21T01:41:38.170Z,39.00
2022-11-21T01:44:17.861Z,38.53
2022-11-21T01:46:46.445Z,38.75
2022-11-21T01:49:18.941Z,37.85
2022-11-21T01:51:54.069Z,36.88
2022-11-21T01:54:28.001Z,39.65
2022-11-21T01:57:01.546Z,35.28
2022-11-21T01:59:35.397Z,36.07
2022-11-21T02:02:07.317Z,36.33
2022-11-21T02:04:37.454Z,37.85
2022-11-21T02:07:07.737Z,35.10
2022-11-21T02:09:40.537Z,37.45
2022-11-21T02:12:14.938Z,35.20
2022-11-21T02:17:13.165Z,37.78
2022-11-21T02:19:50.318Z,33.72
2022-11-21T02:22:28.204Z,35.28
2022-11-21T02:25:04.870Z,35.00
2022-11-21T02:27:33.558Z,38.28
2022-11-21T02:30:04.169Z,36.05
2022-11-21T02:32:38.682Z,36.30
2022-11-21T02:35:08.601Z,38.95
2022-11-21T02:37:38.265Z,38.63
2022-11-21T02:40:11.518Z,36.80
2022-11-21T02:42:47.853Z,34.75
2022-11-21T02:45:23.647Z,37.15
2022-11-21T02:47:59.407Z,34.83
2022-11-21T02:50:32.882Z,39.58
2022-11-21T02:53:01.253Z,37.40
2022-11-21T02:55:31.206Z,38.58
2022-11-21T02:58:04.561Z,40.17
2022-11-21T03:00:34.716Z,36.13
2022-11-21T03:03:03.583Z,35.50
2022-11-21T03:05:32.723Z,41.70
2022-11-21T03:08:01.080Z,38.03
2022-11-21T03:10:30.753Z,39.38
2022-11-21T03:13:01.859Z,37.13
2022-11-21T03:15:31.731Z,37.53
2022-11-21T03:18:01.441Z,37.83
2022-11-21T03:20:29.969Z,42.83
2022-11-21T03:22:58.363Z,37.72
2022-11-21T03:25:26.874Z,35.72
2022-11-21T03:27:56.696Z,34.78
2022-11-21T03:30:27.306Z,35.55
2022-11-21T03:32:57.072Z,36.70
2022-11-21T03:35:25.595Z,40.50
2022-11-21T03:37:53.985Z,38.38
2022-11-21T03:40:22.318Z,42.15
2022-11-21T03:42:50.694Z,37.92
2022-11-21T03:45:20.494Z,38.30
2022-11-21T03:47:48.796Z,35.63
2022-11-21T03:50:19.098Z,38.58
2022-11-21T03:52:47.449Z,38.83
2022-11-21T03:55:16.236Z,40.97
2022-11-21T03:57:44.602Z,42.47
2022-11-21T04:00:14.557Z,37.63
2022-11-21T04:02:44.223Z,42.20
2022-11-21T04:05:12.562Z,40.90
2022-11-21T04:07:40.974Z,40.90
2022-11-21T04:10:10.042Z,39.75
2022-11-21T04:12:38.365Z,39.08
2022-11-21T04:15:13.175Z,37.28
2022-11-21T04:17:42.128Z,41.42
2022-11-21T04:20:12.788Z,40.80
2022-11-21T04:22:41.083Z,40.60
2022-11-21T04:25:09.776Z,40.40
2022-11-21T04:27:38.098Z,41.80
2022-11-21T04:30:07.509Z,40.78
2022-11-21T04:32:35.840Z,40.45
2022-11-21T04:35:04.368Z,41.47
2022-11-21T04:37:34.208Z,41.80
2022-11-21T04:40:02.575Z,45.75
2022-11-21T04:42:30.866Z,42.40
2022-11-21T04:44:59.349Z,37.50
2022-11-21T04:47:27.918Z,41.55
2022-11-21T04:49:56.743Z,40.10
2022-11-21T04:52:25.061Z,37.55
2022-11-21T04:54:54.709Z,37.53
2022-11-21T04:57:23.303Z,40.22
2022-11-21T04:59:51.753Z,43.75
2022-11-21T05:02:20.117Z,43.67
2022-11-21T05:04:48.788Z,42.78
2022-11-21T05:07:17.530Z,44.47
2022-11-21T05:12:32.058Z,40.65
2022-11-21T05:15:00.367Z,40.35
2022-11-21T05:17:29.093Z,42.65
2022-11-21T05:19:57.415Z,43.88
2022-11-21T05:22:25.732Z,41.40
2022-11-21T05:24:54.098Z,43.05
2022-11-21T05:27:24.863Z,40.75
2022-11-21T05:29:53.352Z,43.97
2022-11-21T05:32:21.677Z,39.55
2022-11-21T05:34:50.018Z,44.60
2022-11-21T05:37:18.786Z,41.40
2022-11-21T05:39:47.090Z,38.25
2022-11-21T05:42:15.438Z,42.85
2022-11-21T05:44:44.117Z,41.30
2022-11-21T05:47:12.426Z,41.42
2022-11-21T05:49:40.718Z,41.70
2022-11-21T05:52:09.034Z,41.53
2022-11-21T05:54:37.330Z,46.63
2022-11-21T05:57:05.733Z,44.60
2022-11-21T05:59:34.034Z,43.90
2022-11-21T06:02:21.152Z,41.75
2022-11-21T06:04:49.579Z,38.72
2022-11-21T06:07:17.891Z,45.25
2022-11-21T06:09:49.180Z,44.22
2022-11-21T06:12:21.466Z,40.38
2022-11-21T06:14:53.763Z,44.15
2022-11-21T06:17:23.434Z,41.15
2022-11-21T06:19:52.774Z,46.15
2022-11-21T06:22:21.308Z,46.15
2022-11-21T06:24:49.610Z,43.28
2022-11-21T06:27:17.937Z,42.38
2022-11-21T06:29:46.325Z,44.42
2022-11-21T06:32:14.687Z,40.95
2022-11-21T06:34:44.577Z,42.83
2022-11-21T06:37:12.929Z,47.53
2022-11-21T06:39:41.258Z,46.10
2022-11-21T06:42:09.555Z,44.50
2022-11-21T06:44:37.861Z,44.97
2022-11-21T06:47:06.313Z,44.03
2022-11-21T06:49:34.605Z,43.35
2022-11-21T06:52:04.438Z,39.65
2022-11-21T06:54:32.944Z,46.08
2022-11-21T06:57:01.602Z,42.20
2022-11-21T06:59:29.933Z,43.30
2022-11-21T07:01:58.233Z,51.22
2022-11-21T07:04:26.906Z,49.50
2022-11-21T07:06:55.414Z,44.92
2022-11-21T07:09:33.364Z,45.63
2022-11-21T07:12:22.675Z,42.20
2022-11-21T07:14:50.061Z,45.15
2022-11-21T07:17:18.394Z,49.47
2022-11-21T07:19:46.795Z,42.22
2022-11-21T07:22:15.228Z,43.55
2022-11-21T07:24:44.904Z,50.65
2022-11-21T07:27:13.367Z,48.10
2022-11-21T07:29:41.717Z,52.60
2022-11-21T07:32:10.042Z,50.38
2022-11-21T07:34:38.384Z,44.95
2022-11-21T07:37:06.705Z,43.35
2022-11-21T07:39:35.109Z,47.10
2022-11-21T07:42:04.852Z,47.05
2022-11-21T07:44:33.205Z,39.70
2022-11-21T07:47:01.521Z,46.17
2022-11-21T07:49:30.273Z,42.70
2022-11-21T07:51:59.485Z,50.10
2022-11-21T07:54:27.803Z,46.30
2022-11-21T07:56:56.338Z,45.25
2022-11-21T07:59:26.303Z,47.35
2022-11-21T08:01:54.985Z,51.67
2022-11-21T08:04:23.420Z,54.40
2022-11-21T08:06:51.733Z,50.00
2022-11-21T08:09:20.244Z,53.78
2022-11-21T08:11:48.663Z,54.85
2022-11-21T08:14:17.006Z,52.22
2022-11-21T08:16:46.698Z,51.25
2022-11-21T08:19:15.039Z,53.97
2022-11-21T08:21:43.351Z,55.78
2022-11-21T08:24:14.603Z,56.03
2022-11-21T08:26:42.952Z,57.88
2022-11-21T08:29:11.945Z,58.80
2022-11-21T08:31:40.723Z,56.35
2022-11-21T08:34:14.395Z,50.28
2022-11-21T08:36:43.155Z,45.00
2022-11-21T08:39:11.473Z,46.92
2022-11-21T08:41:57.315Z,44.83
2022-11-21T08:44:25.631Z,43.55
2022-11-21T08:46:53.918Z,48.45
2022-11-21T08:49:23.630Z,47.47
2022-11-21T08:51:52.534Z,53.38
2022-11-21T08:54:22.604Z,49.13
2022-11-21T08:56:51.280Z,46.35
2022-11-21T08:59:19.573Z,44.97
2022-11-21T09:01:48.066Z,45.90
2022-11-21T09:04:16.676Z,41.92
2022-11-21T09:06:46.366Z,39.38
2022-11-21T09:09:14.736Z,39.80
2022-11-21T09:11:43.046Z,31.17
2022-11-21T09:14:29.093Z,34.67
2022-11-21T09:17:15.300Z,40.20
2022-11-21T09:19:43.649Z,39.67
2022-11-21T09:22:13.304Z,41.33
2022-11-21T09:24:46.971Z,46.10
2022-11-21T09:27:15.334Z,51.42
2022-11-21T09:29:48.102Z,51.92
2022-11-21T09:32:19.489Z,52.50
2022-11-21T09:34:47.933Z,51.38
2022-11-21T09:37:17.651Z,54.45
2022-11-21T09:39:46.016Z,54.28
2022-11-21T09:42:36.082Z,52.65
2022-11-21T09:45:10.880Z,52.80
2022-11-21T09:47:43.710Z,60.90
2022-11-21T09:50:26.089Z,51.63
2022-11-21T09:53:01.723Z,53.15
2022-11-21T09:55:40.803Z,57.47
2022-11-21T09:58:20.377Z,47.10
2022-11-21T10:00:52.191Z,49.97
2022-11-21T10:03:23.663Z,47.60
2022-11-21T10:05:55.989Z,46.90
2022-11-21T10:08:35.154Z,51.28
2022-11-21T10:11:19.757Z,48.92
2022-11-21T10:14:05.333Z,48.67
2022-11-21T10:16:44.880Z,37.85
2022-11-21T10:19:32.464Z,42.88
2022-11-21T10:22:19.094Z,38.55
2022-11-21T10:24:56.226Z,40.58
2022-11-21T10:27:34.424Z,38.83
2022-11-21T10:30:05.666Z,42.53
2022-11-21T10:32:39.428Z,40.55
2022-11-21T10:35:15.687Z,41.97
2022-11-21T10:37:48.793Z,39.30
2022-11-21T10:40:36.779Z,47.47
2022-11-21T10:43:28.126Z,50.33
2022-11-21T10:45:56.681Z,48.45
2022-11-21T10:48:24.980Z,43.45
2022-11-21T10:51:11.748Z,44.25
2022-11-21T10:54:00.877Z,46.83
2022-11-21T10:56:35.932Z,44.95
2022-11-21T10:59:18.710Z,48.22
2022-11-21T11:01:56.165Z,55.80
2022-11-21T11:04:44.044Z,48.70
2022-11-21T11:07:23.567Z,50.58
2022-11-21T11:09:53.469Z,55.45
2022-11-21T11:12:48.230Z,48.60
2022-11-21T11:15:22.362Z,48.00
2022-11-21T11:17:53.801Z,41.58
2022-11-21T11:20:38.784Z,44.33
2022-11-21T11:23:17.839Z,40.20
2022-11-21T11:25:48.328Z,40.33
2022-11-21T11:28:20.023Z,39.22
2022-11-21T11:30:49.347Z,37.95
2022-11-21T11:33:36.425Z,52.47
2022-11-21T11:36:25.907Z,40.70
2022-11-21T11:38:58.024Z,33.50
2022-11-21T11:42:05.824Z,29.23
2022-11-21T11:45:04.734Z,37.33
2022-11-21T11:47:39.438Z,31.80
2022-11-21T11:50:12.786Z,29.90
2022-11-21T11:52:52.203Z,29.50
2022-11-21T11:55:24.978Z,31.23
2022-11-21T11:57:55.877Z,35.97
2022-11-21T12:00:36.290Z,30.52
2022-11-21T12:03:14.205Z,32.28
2022-11-21T12:05:56.670Z,31.02
2022-11-21T12:08:41.253Z,30.92
2022-11-21T12:11:52.971Z,33.10
2022-11-21T12:14:55.832Z,34.92
2022-11-21T12:17:33.577Z,27.42
2022-11-21T12:20:06.424Z,22.80
2022-11-21T12:22:34.801Z,25.13
2022-11-21T12:25:03.210Z,26.13
2022-11-21T12:27:33.221Z,23.27
2022-11-21T12:30:30.161Z,26.27
2022-11-21T12:33:08.942Z,26.90
2022-11-21T12:35:51.997Z,25.85
2022-11-21T12:38:43.470Z,21.40
2022-11-21T12:41:37.918Z,22.70
2022-11-21T12:44:16.579Z,24.33
2022-11-21T12:46:54.774Z,24.17
2022-11-21T12:49:54.378Z,26.02
2022-11-21T12:52:42.719Z,23.63
2022-11-21T12:55:35.089Z,24.17
2022-11-21T12:58:12.825Z,24.50
2022-11-21T13:00:52.749Z,23.63
2022-11-21T13:03:39.214Z,23.67
2022-11-21T13:06:15.896Z,26.25
2022-11-21T13:08:48.594Z,29.13
2022-11-21T13:11:46.509Z,32.63
2022-11-21T13:14:21.338Z,25.40
2022-11-21T13:17:00.776Z,29.65
2022-11-21T13:19:37.029Z,30.23
2022-11-21T13:22:06.717Z,26.30
2022-11-21T13:24:58.238Z,26.30
2022-11-21T13:27:38.194Z,27.65
2022-11-21T13:30:25.421Z,26.15
2022-11-21T13:32:55.200Z,28.58
2022-11-21T13:36:06.124Z,23.33
2022-11-21T13:39:16.350Z,26.73
2022-11-21T13:42:29.277Z,24.58
2022-11-21T13:44:59.052Z,31.83
2022-11-21T13:47:56.384Z,32.88
2022-11-21T13:50:46.136Z,30.58
2022-11-21T13:53:31.513Z,32.05
2022-11-21T13:56:06.535Z,33.85
2022-11-21T13:58:55.791Z,28.90
2022-11-21T14:01:46.280Z,32.17
2022-11-21T14:04:57.593Z,30.02
2022-11-21T14:07:29.320Z,30.25
2022-11-21T14:10:00.247Z,31.63
2022-11-21T14:12:35.251Z,31.38
2022-11-21T14:15:25.585Z,32.83
2022-11-21T14:17:56.965Z,32.90
2022-11-21T14:20:27.851Z,30.42
2022-11-21T14:22:59.525Z,30.10
2022-11-21T14:25:36.166Z,31.90
2022-11-21T14:28:07.690Z,28.83
2022-11-21T14:30:39.320Z,34.50
2022-11-21T14:33:29.339Z,30.42
2022-11-21T14:36:02.319Z,33.78
2022-11-21T14:38:32.510Z,32.53
2022-11-21T14:41:25.099Z,31.35
2022-11-21T14:44:15.864Z,34.50
2022-11-21T14:46:47.361Z,33.70
2022-11-21T14:49:29.222Z,30.67
2022-11-21T14:52:07.429Z,35.65
2022-11-21T14:55:06.341Z,35.50
2022-11-21T14:57:37.690Z,32.55
2022-11-21T15:00:07.843Z,33.97
2022-11-21T15:02:40.232Z,33.50
2022-11-21T15:05:21.286Z,32.42
2022-11-21T15:08:32.049Z,37.53
2022-11-21T15:10:51.985Z,33.65
2022-11-21T15:13:24.689Z,37.80
2022-11-21T15:15:55.625Z,34.38
2022-11-21T15:18:28.334Z,36.35
2022-11-21T15:21:00.260Z,35.28
2022-11-21T15:23:30.406Z,31.55
2022-11-21T15:26:01.542Z,34.15
2022-11-21T15:28:31.708Z,35.25
2022-11-21T15:31:18.210Z,45.78
2022-11-21T15:34:33.767Z,35.20
2022-11-21T15:37:06.309Z,35.20
2022-11-21T15:39:37.849Z,36.35
2022-11-21T15:42:35.924Z,36.67
2022-11-21T15:45:21.964Z,35.78
2022-11-21T15:47:50.578Z,34.35
2022-11-21T15:50:25.131Z,35.45
2022-11-21T15:52:55.701Z,33.60
2022-11-21T15:55:29.310Z,39.85
2022-11-21T15:57:58.129Z,40.28
2022-11-21T16:00:27.950Z,43.65
2022-11-21T16:02:57.147Z,33.60
2022-11-21T16:05:30.156Z,34.03
2022-11-21T16:07:59.031Z,32.05
2022-11-21T16:10:29.072Z,32.00
2022-11-21T16:12:58.174Z,34.03
2022-11-21T16:15:30.008Z,38.63
2022-11-21T16:18:01.476Z,41.03
2022-11-21T16:20:33.733Z,42.58
2022-11-21T16:23:02.630Z,32.40
2022-11-21T16:25:31.147Z,33.60
2022-11-21T16:28:02.870Z,38.25
2022-11-21T16:30:34.149Z,33.50
2022-11-21T16:33:03.396Z,34.38
2022-11-21T16:35:33.297Z,38.55
2022-11-21T16:38:01.726Z,35.47
2022-11-21T16:40:30.024Z,36.85
2022-11-21T16:43:08.866Z,37.67
2022-11-21T16:45:38.120Z,40.85
2022-11-21T16:48:07.082Z,35.42
2022-11-21T16:50:36.855Z,35.50
2022-11-21T16:53:06.200Z,37.10
2022-11-21T16:55:34.781Z,37.65
2022-11-21T16:58:03.115Z,39.30
2022-11-21T17:00:31.522Z,38.88
2022-11-21T17:03:00.313Z,40.53
2022-11-21T17:05:28.757Z,33.13
2022-11-21T17:07:59.814Z,38.08
2022-11-21T17:10:33.792Z,38.65
2022-11-21T17:15:34.624Z,40.00
2022-11-21T17:18:03.173Z,38.90
2022-11-21T17:20:31.716Z,38.25
2022-11-21T17:23:02.772Z,38.17
2022-11-21T17:25:31.130Z,42.92
2022-11-21T17:28:00.394Z,47.10
2022-11-21T17:30:28.741Z,37.70
2022-11-21T17:32:57.208Z,47.75
2022-11-21T17:35:25.539Z,40.67
2022-11-21T17:37:53.889Z,40.22
2022-11-21T17:40:23.583Z,48.55
2022-11-21T17:42:52.090Z,45.38
2022-11-21T17:45:20.438Z,41.70
2022-11-21T17:47:48.794Z,47.22
2022-11-21T17:50:17.205Z,41.13
2022-11-21T17:52:47.033Z,42.42
2022-11-21T17:55:15.604Z,37.22
2022-11-21T17:57:45.395Z,38.97
2022-11-21T18:00:15.070Z,40.40
2022-11-21T18:02:43.591Z,44.58
2022-11-21T18:05:12.014Z,45.00
2022-11-21T18:07:40.607Z,43.45
2022-11-21T18:10:40.661Z,52.15
2022-11-21T18:12:59.286Z,48.15
2022-11-21T18:15:27.629Z,57.90
2022-11-21T18:17:56.550Z,55.20
2022-11-21T18:20:25.069Z,55.47
2022-11-21T18:22:53.498Z,52.83
2022-11-21T18:25:21.888Z,46.22
2022-11-21T18:27:54.454Z,47.13
2022-11-21T18:30:24.529Z,43.45
2022-11-21T18:32:52.885Z,40.50
2022-11-21T18:35:21.308Z,39.00
2022-11-21T18:37:49.616Z,42.72
2022-11-21T18:40:18.331Z,48.05
2022-11-21T18:42:47.109Z,48.83
2022-11-21T18:45:15.582Z,55.05
2022-11-21T18:47:47.820Z,49.53
2022-11-21T18:50:17.124Z,47.08
2022-11-21T18:52:46.962Z,45.92
2022-11-21T18:55:15.660Z,43.22
2022-11-21T18:57:44.117Z,45.33
2022-11-21T19:00:13.689Z,45.58
2022-11-21T19:02:42.147Z,43.63
2022-11-21T19:05:15.109Z,46.30
2022-11-21T19:07:48.707Z,43.83
2022-11-21T19:10:42.135Z,45.42
2022-11-21T19:13:06.334Z,45.60
2022-11-21T19:15:38.191Z,50.08
2022-11-21T19:18:06.767Z,43.38
2022-11-21T19:20:37.746Z,46.60
2022-11-21T19:23:06.329Z,39.58
2022-11-21T19:25:35.237Z,43.75
2022-11-21T19:28:03.586Z,45.95
2022-11-21T19:30:31.928Z,42.15
2022-11-21T19:33:00.312Z,42.70
2022-11-21T19:35:28.658Z,50.42
2022-11-21T19:37:58.363Z,47.70
2022-11-21T19:40:46.743Z,41.88
2022-11-21T19:43:15.073Z,44.60
2022-11-21T19:45:44.173Z,46.88
2022-11-21T19:48:12.531Z,42.65
2022-11-21T19:50:45.906Z,43.78
2022-11-21T19:53:18.988Z,51.17
2022-11-21T19:55:47.275Z,42.25
2022-11-21T19:58:15.634Z,41.60
2022-11-21T20:00:44.135Z,39.10
2022-11-21T20:03:12.644Z,44.33
2022-11-21T20:05:40.944Z,41.05
2022-11-21T20:08:17.146Z,36.67
2022-11-21T20:10:47.468Z,38.20
2022-11-21T20:13:15.921Z,38.30
2022-11-21T20:15:44.285Z,40.30
2022-11-21T20:18:12.869Z,37.40
2022-11-21T20:20:41.382Z,39.63
2022-11-21T20:23:09.764Z,36.50
2022-11-21T20:25:40.257Z,38.05
2022-11-21T20:28:11.749Z,35.70
2022-11-21T20:30:40.211Z,34.85
2022-11-21T20:33:11.297Z,36.50
2022-11-21T20:35:42.021Z,30.67
2022-11-21T20:38:10.364Z,29.75
2022-11-21T20:40:39.090Z,33.13
2022-11-21T20:43:07.443Z,38.65
2022-11-21T20:46:07.895Z,34.25
2022-11-21T20:48:25.443Z,36.15
2022-11-21T20:53:52.611Z,35.50
2022-11-21T20:56:23.237Z,34.33
2022-11-21T20:58:51.889Z,32.97
2022-11-21T21:01:23.836Z,34.55
2022-11-21T21:03:52.255Z,31.85
2022-11-21T21:06:23.956Z,30.30
2022-11-21T21:08:53.079Z,27.25
2022-11-21T21:11:50.447Z,32.78
2022-11-21T21:14:11.687Z,33.75
2022-11-21T21:16:41.345Z,32.75
2022-11-21T21:19:09.669Z,31.65
2022-11-21T21:21:40.085Z,29.30
2022-11-21T21:24:10.832Z,29.92
2022-11-21T21:26:42.959Z,29.65
2022-11-21T21:29:12.682Z,26.38
2022-11-21T21:31:47.130Z,29.85
2022-11-21T21:34:18.801Z,33.55
2022-11-21T21:36:47.203Z,30.73
2022-11-21T21:39:15.614Z,33.17
2022-11-21T21:41:46.725Z,31.20
2022-11-21T21:44:16.413Z,29.30
2022-11-21T21:46:46.414Z,29.60
2022-11-21T21:49:14.919Z,32.35
2022-11-21T21:51:43.421Z,33.65
2022-11-21T21:54:18.467Z,35.60
2022-11-21T21:56:47.139Z,30.98
2022-11-21T21:59:15.881Z,32.45
2022-11-21T22:01:44.281Z,32.58
2022-11-21T22:04:14.336Z,33.83
2022-11-21T22:06:42.787Z,37.13
2022-11-21T22:09:11.334Z,30.65
2022-11-21T22:11:40.249Z,32.55
2022-11-21T22:14:12.551Z,30.38
2022-11-21T22:16:41.061Z,34.00
2022-11-21T22:19:10.282Z,30.15
2022-11-21T22:21:40.749Z,35.13
2022-11-21T22:24:29.526Z,36.05
2022-11-21T22:26:57.938Z,37.28
2022-11-21T22:29:26.306Z,38.33
2022-11-21T22:31:54.755Z,38.05
2022-11-21T22:34:23.401Z,35.80
2022-11-21T22:36:53.212Z,35.13
2022-11-21T22:39:21.611Z,34.55
2022-11-21T22:41:49.934Z,30.60
2022-11-21T22:44:19.108Z,33.05
2022-11-21T22:46:48.414Z,33.80
2022-11-21T22:49:16.758Z,35.90
2022-11-21T22:51:45.207Z,36.38
2022-11-21T22:54:14.881Z,36.78
2022-11-21T22:56:43.297Z,34.42
2022-11-21T22:59:13.472Z,35.80
2022-11-21T23:01:41.829Z,33.45
2022-11-21T23:04:16.106Z,36.33
2022-11-21T23:06:45.958Z,38.08
2022-11-21T23:09:15.655Z,36.67
2022-11-21T23:11:43.966Z,35.45
2022-11-21T23:14:12.360Z,32.78
2022-11-21T23:16:40.698Z,36.53
2022-11-21T23:19:09.245Z,35.78
2022-11-21T23:21:37.578Z,35.28
2022-11-21T23:24:06.602Z,32.70
2022-11-21T23:26:36.416Z,36.05
2022-11-21T23:29:08.496Z,32.45
2022-11-21T23:31:37.516Z,33.72
2022-11-21T23:34:06.131Z,34.88
2022-11-21T23:36:34.783Z,34.13
2022-11-21T23:39:03.203Z,33.10
2022-11-21T23:41:31.609Z,31.35
2022-11-21T23:44:01.344Z,33.30
2022-11-21T23:46:30.292Z,34.05
2022-11-21T23:48:58.826Z,36.03
2022-11-21T23:51:27.176Z,31.85
2022-11-21T23:53:55.465Z,31.33
2022-11-21T23:56:23.919Z,30.85
2022-11-21T23:58:52.247Z,34.08
